createdAt,value
2018-09-18T00:02:17.540Z,17.58
2018-09-18T00:04:47.451Z,17.57
2018-09-18T00:07:17.539Z,17.59
2018-09-18T00:09:47.679Z,17.55
2018-09-18T00:12:17.592Z,17.52
2018-09-18T00:14:48.232Z,17.50
2018-09-18T00:17:18.188Z,17.49
2018-09-18T00:19:48.436Z,17.42
2018-09-18T00:22:18.470Z,17.38
2018-09-18T00:24:48.779Z,17.35
2018-09-18T00:27:18.899Z,17.39
2018-09-18T00:29:50.136Z,17.40
2018-09-18T00:32:21.160Z,17.32
2018-09-18T00:34:51.261Z,17.29
2018-09-18T00:37:21.438Z,17.24
2018-09-18T00:39:52.526Z,17.17
2018-09-18T00:42:22.931Z,17.16
2018-09-18T00:44:53.201Z,17.19
2018-09-18T00:47:23.396Z,17.18
2018-09-18T00:49:53.747Z,17.15
2018-09-18T00:52:23.896Z,17.10
2018-09-18T00:54:53.984Z,17.06
2018-09-18T00:57:24.101Z,17.00
2018-09-18T00:59:53.940Z,17.01
2018-09-18T01:02:24.009Z,16.98
2018-09-18T01:04:54.024Z,16.99
2018-09-18T01:07:23.943Z,16.96
2018-09-18T01:09:54.643Z,17.05
2018-09-18T01:12:24.707Z,17.09
2018-09-18T01:14:55.106Z,17.07
2018-09-18T01:17:25.522Z,17.05
2018-09-18T01:19:56.540Z,17.10
2018-09-18T01:22:26.460Z,17.07
2018-09-18T01:24:57.092Z,17.11
2018-09-18T01:27:27.422Z,17.19
2018-09-18T01:29:57.297Z,17.10
2018-09-18T01:32:27.141Z,17.04
2018-09-18T01:34:57.056Z,17.01
2018-09-18T01:37:27.385Z,17.09
2018-09-18T01:39:58.225Z,17.12
2018-09-18T01:42:28.026Z,17.11
2018-09-18T01:44:57.767Z,17.20
2018-09-18T01:47:27.770Z,17.26
2018-09-18T01:49:57.906Z,17.23
2018-09-18T01:52:29.181Z,17.21
2018-09-18T01:54:59.160Z,17.24
2018-09-18T01:57:30.085Z,17.25
2018-09-18T02:00:01.351Z,17.20
2018-09-18T02:02:31.355Z,17.23
2018-09-18T02:05:01.568Z,17.25
2018-09-18T02:07:35.882Z,17.25
2018-09-18T02:10:06.175Z,17.37
2018-09-18T02:12:36.406Z,17.36
2018-09-18T02:15:06.459Z,17.26
2018-09-18T02:17:36.563Z,17.19
2018-09-18T02:20:06.800Z,17.16
2018-09-18T02:22:36.938Z,17.08
2018-09-18T02:25:07.014Z,17.08
2018-09-18T02:27:37.400Z,17.18
2018-09-18T02:30:07.825Z,17.16
2018-09-18T02:32:37.821Z,17.22
2018-09-18T02:35:08.231Z,17.23
2018-09-18T02:37:38.803Z,17.10
2018-09-18T02:40:08.985Z,17.10
2018-09-18T02:42:40.217Z,17.11
2018-09-18T02:45:11.299Z,17.12
2018-09-18T02:47:41.431Z,17.06
2018-09-18T02:50:11.739Z,17.01
2018-09-18T02:52:45.399Z,16.98
2018-09-18T02:55:16.351Z,16.97
2018-09-18T02:57:46.479Z,16.96
2018-09-18T03:00:16.612Z,16.98
2018-09-18T03:02:46.922Z,17.01
2018-09-18T03:05:17.090Z,17.04
2018-09-18T03:07:47.132Z,17.00
2018-09-18T03:10:17.496Z,17.05
2018-09-18T03:12:47.753Z,17.09
2018-09-18T03:15:18.071Z,16.98
2018-09-18T03:17:48.486Z,16.98
2018-09-18T03:20:19.644Z,17.06
2018-09-18T03:22:50.146Z,17.12
2018-09-18T03:25:20.271Z,17.08
2018-09-18T03:27:53.556Z,17.12
2018-09-18T03:30:24.725Z,17.18
2018-09-18T03:32:55.942Z,17.14
2018-09-18T03:35:26.315Z,17.11
2018-09-18T03:37:57.446Z,17.09
2018-09-18T03:40:28.548Z,17.10
2018-09-18T03:42:58.569Z,17.07
2018-09-18T03:45:28.833Z,17.13
2018-09-18T03:47:58.850Z,17.11
2018-09-18T03:50:29.355Z,17.11
2018-09-18T03:52:59.458Z,17.07
2018-09-18T03:55:29.489Z,17.03
2018-09-18T03:57:59.834Z,17.06
2018-09-18T04:00:30.102Z,17.09
2018-09-18T04:03:00.159Z,17.20
2018-09-18T04:05:30.303Z,17.16
2018-09-18T04:08:01.264Z,17.21
2018-09-18T04:10:31.419Z,17.25
2018-09-18T04:13:01.550Z,17.32
2018-09-18T04:15:31.663Z,17.32
2018-09-18T04:18:03.513Z,17.32
2018-09-18T04:20:34.155Z,17.42
2018-09-18T04:23:04.306Z,17.47
2018-09-18T04:25:34.624Z,17.42
2018-09-18T04:28:04.493Z,17.50
2018-09-18T04:30:34.663Z,17.61
2018-09-18T04:33:04.658Z,17.56
2018-09-18T04:35:35.792Z,17.58
2018-09-18T04:38:07.407Z,17.60
2018-09-18T04:40:37.822Z,17.73
2018-09-18T04:43:08.318Z,17.82
2018-09-18T04:45:38.481Z,18.02
2018-09-18T04:48:08.751Z,17.96
2018-09-18T04:50:38.752Z,18.04
2018-09-18T04:53:09.588Z,18.04
2018-09-18T04:55:40.378Z,18.15
2018-09-18T04:58:10.494Z,18.24
2018-09-18T05:00:40.821Z,18.33
2018-09-18T05:03:11.050Z,18.49
2018-09-18T05:05:41.376Z,18.65
2018-09-18T05:08:11.592Z,18.87
2018-09-18T05:10:41.564Z,19.48
2018-09-18T05:13:12.560Z,20.86
2018-09-18T05:15:42.897Z,22.11
2018-09-18T05:18:14.282Z,22.82
2018-09-18T05:20:46.650Z,23.53
2018-09-18T05:23:16.910Z,23.71
2018-09-18T05:25:47.789Z,25.05
2018-09-18T05:28:18.049Z,25.83
2018-09-18T05:30:48.721Z,26.54
2018-09-18T05:33:19.439Z,26.85
2018-09-18T05:35:49.475Z,27.69
2018-09-18T05:38:19.491Z,28.07
2018-09-18T05:40:49.736Z,28.12
2018-09-18T05:43:20.309Z,28.92
2018-09-18T05:45:50.615Z,28.55
2018-09-18T05:48:24.649Z,27.79
2018-09-18T05:50:54.818Z,28.23
2018-09-18T05:53:24.943Z,27.43
2018-09-18T05:55:55.016Z,27.48
2018-09-18T05:58:26.333Z,27.83
2018-09-18T06:00:56.506Z,27.38
2018-09-18T06:03:28.643Z,27.16
2018-09-18T06:05:58.777Z,26.51
2018-09-18T06:08:30.238Z,26.77
2018-09-18T06:11:00.439Z,27.35
2018-09-18T06:13:30.617Z,27.79
2018-09-18T06:16:01.364Z,28.18
2018-09-18T06:18:31.612Z,27.50
2018-09-18T06:21:01.654Z,27.31
2018-09-18T06:23:33.783Z,26.19
2018-09-18T06:26:04.209Z,25.99
2018-09-18T06:28:35.074Z,25.04
2018-09-18T06:31:06.332Z,26.40
2018-09-18T06:33:36.614Z,26.51
2018-09-18T06:36:07.927Z,27.13
2018-09-18T06:38:40.232Z,27.85
2018-09-18T06:41:12.221Z,26.29
2018-09-18T06:43:42.397Z,26.31
2018-09-18T06:46:13.581Z,26.56
2018-09-18T06:48:44.191Z,24.94
2018-09-18T06:51:14.235Z,24.34
2018-09-18T06:53:45.590Z,23.14
2018-09-18T06:56:16.011Z,22.58
2018-09-18T06:58:46.169Z,22.39
2018-09-18T07:01:16.326Z,21.76
2018-09-18T07:03:46.463Z,21.55
2018-09-18T07:06:16.390Z,21.08
2018-09-18T07:08:46.686Z,21.14
2018-09-18T07:11:16.846Z,20.93
2018-09-18T07:13:46.870Z,20.86
2018-09-18T07:16:17.045Z,20.94
2018-09-18T07:18:47.045Z,20.95
2018-09-18T07:21:17.369Z,20.86
2018-09-18T07:23:47.640Z,21.16
2018-09-18T07:26:18.310Z,21.15
2018-09-18T07:28:49.526Z,20.98
2018-09-18T07:31:19.330Z,20.98
2018-09-18T07:33:49.521Z,20.92
2018-09-18T07:36:19.769Z,21.17
2018-09-18T07:38:49.780Z,21.42
2018-09-18T07:41:20.999Z,21.46
2018-09-18T07:43:51.108Z,21.70
2018-09-18T07:46:21.405Z,21.90
2018-09-18T07:48:51.663Z,22.03
2018-09-18T07:51:21.823Z,22.08
2018-09-18T07:53:52.048Z,22.24
2018-09-18T07:56:22.634Z,21.86
2018-09-18T07:58:53.299Z,21.94
2018-09-18T08:01:24.360Z,22.02
2018-09-18T08:03:55.088Z,22.38
2018-09-18T08:06:25.239Z,22.52
2018-09-18T08:08:56.237Z,22.25
2018-09-18T08:11:27.208Z,22.09
2018-09-18T08:13:57.315Z,21.90
2018-09-18T08:16:27.654Z,21.80
2018-09-18T08:18:57.873Z,21.69
2018-09-18T08:21:27.827Z,21.83
2018-09-18T08:24:00.253Z,21.84
2018-09-18T08:26:30.243Z,21.84
2018-09-18T08:29:00.575Z,21.68
2018-09-18T08:31:30.716Z,21.62
2018-09-18T08:34:01.075Z,21.65
2018-09-18T08:36:32.596Z,21.57
2018-09-18T08:39:03.433Z,21.69
2018-09-18T08:41:34.909Z,21.93
2018-09-18T08:44:05.553Z,21.53
2018-09-18T08:46:36.100Z,21.96
2018-09-18T08:49:07.253Z,21.96
2018-09-18T08:51:37.423Z,21.88
2018-09-18T08:54:07.631Z,21.80
2018-09-18T08:56:38.336Z,21.81
2018-09-18T08:59:09.764Z,21.75
2018-09-18T09:01:40.456Z,21.77
2018-09-18T09:04:14.951Z,21.49
2018-09-18T09:06:45.514Z,21.54
2018-09-18T09:09:16.214Z,21.75
2018-09-18T09:11:46.656Z,21.91
2018-09-18T09:14:18.897Z,21.85
2018-09-18T09:16:49.096Z,21.90
2018-09-18T09:19:19.341Z,21.77
2018-09-18T09:21:49.505Z,21.84
2018-09-18T09:24:20.331Z,21.90
2018-09-18T09:26:51.245Z,22.06
2018-09-18T09:29:21.509Z,22.04
2018-09-18T09:31:53.701Z,22.12
2018-09-18T09:34:23.860Z,22.00
2018-09-18T09:36:54.014Z,22.03
2018-09-18T09:39:24.209Z,21.86
2018-09-18T09:41:54.942Z,21.97
2018-09-18T09:44:25.375Z,21.82
2018-09-18T09:46:55.798Z,21.73
2018-09-18T09:49:25.974Z,21.56
2018-09-18T09:51:56.098Z,21.50
2018-09-18T09:54:26.467Z,21.41
2018-09-18T09:56:56.780Z,21.54
2018-09-18T09:59:26.967Z,21.71
2018-09-18T10:02:01.744Z,21.86
2018-09-18T10:04:32.096Z,21.83
2018-09-18T10:07:02.381Z,21.97
2018-09-18T10:09:32.397Z,21.78
2018-09-18T10:12:02.694Z,21.76
2018-09-18T10:14:34.185Z,21.76
2018-09-18T10:17:04.288Z,21.77
2018-09-18T10:19:34.319Z,21.62
2018-09-18T10:22:05.239Z,21.53
2018-09-18T10:24:35.589Z,21.68
2018-09-18T10:27:05.683Z,21.63
2018-09-18T10:29:35.620Z,21.44
2018-09-18T10:32:05.983Z,21.48
2018-09-18T10:34:36.156Z,21.52
2018-09-18T10:37:06.632Z,21.52
2018-09-18T10:39:37.393Z,21.63
2018-09-18T10:42:12.128Z,21.60
2018-09-18T10:44:43.053Z,21.59
2018-09-18T10:47:13.464Z,21.63
2018-09-18T10:49:43.663Z,21.59
2018-09-18T10:52:13.943Z,21.49
2018-09-18T10:54:43.857Z,21.39
2018-09-18T10:57:14.148Z,21.57
2018-09-18T10:59:44.259Z,21.68
2018-09-18T11:02:14.419Z,21.84
2018-09-18T11:04:46.049Z,21.95
2018-09-18T11:07:16.350Z,21.84
2018-09-18T11:09:47.422Z,21.67
2018-09-18T11:12:17.538Z,21.79
2018-09-18T11:14:48.328Z,21.78
2018-09-18T11:17:18.368Z,21.71
2018-09-18T11:19:48.518Z,21.78
2018-09-18T11:22:18.909Z,21.66
2018-09-18T11:24:48.898Z,21.71
2018-09-18T11:27:20.671Z,21.81
2018-09-18T11:29:51.688Z,21.79
2018-09-18T11:32:22.006Z,21.80
2018-09-18T11:34:53.174Z,21.78
2018-09-18T11:37:23.248Z,21.79
2018-09-18T11:39:53.581Z,21.72
2018-09-18T11:42:24.050Z,21.56
2018-09-18T11:44:54.497Z,21.69
2018-09-18T11:47:25.425Z,21.70
2018-09-18T11:49:55.734Z,21.79
2018-09-18T11:52:25.715Z,21.81
2018-09-18T11:54:55.461Z,21.71
2018-09-18T11:57:25.440Z,21.49
2018-09-18T11:59:55.055Z,21.28
2018-09-18T12:02:26.241Z,21.37
2018-09-18T12:04:56.363Z,21.53
2018-09-18T12:07:27.114Z,21.58
2018-09-18T12:09:58.041Z,21.69
2018-09-18T12:12:28.612Z,21.69
2018-09-18T12:14:59.023Z,21.75
2018-09-18T12:17:29.273Z,21.92
2018-09-18T12:20:03.493Z,21.93
2018-09-18T12:22:33.924Z,21.77
2018-09-18T12:25:04.471Z,21.70
2018-09-18T12:27:35.001Z,21.79
2018-09-18T12:30:06.390Z,21.37
2018-09-18T12:32:36.242Z,21.50
2018-09-18T12:35:09.647Z,21.52
2018-09-18T12:37:39.869Z,21.43
2018-09-18T12:40:10.251Z,21.40
2018-09-18T12:42:42.409Z,21.43
2018-09-18T12:45:12.519Z,21.45
2018-09-18T12:47:42.570Z,21.57
2018-09-18T12:50:13.151Z,21.54
2018-09-18T12:52:44.306Z,21.61
2018-09-18T12:55:15.452Z,21.48
2018-09-18T12:57:45.876Z,21.57
2018-09-18T13:00:16.870Z,21.49
2018-09-18T13:02:47.220Z,21.35
2018-09-18T13:05:19.179Z,21.38
2018-09-18T13:07:49.605Z,21.49
2018-09-18T13:10:21.260Z,21.35
2018-09-18T13:12:51.967Z,21.25
2018-09-18T13:15:22.119Z,21.28
2018-09-18T13:17:52.358Z,21.33
2018-09-18T13:20:22.921Z,21.24
2018-09-18T13:22:52.951Z,21.23
2018-09-18T13:25:22.927Z,21.22
2018-09-18T13:27:54.379Z,21.12
2018-09-18T13:30:24.823Z,21.14
2018-09-18T13:32:54.921Z,21.09
2018-09-18T13:35:26.167Z,21.09
2018-09-18T13:37:56.339Z,21.16
2018-09-18T13:40:28.112Z,21.17
2018-09-18T13:43:02.695Z,21.14
2018-09-18T13:45:32.931Z,21.03
2018-09-18T13:48:03.974Z,21.11
2018-09-18T13:50:34.399Z,21.21
2018-09-18T13:53:04.231Z,21.05
2018-09-18T13:55:34.012Z,21.00
2018-09-18T13:58:05.177Z,21.03
2018-09-18T14:00:35.293Z,21.02
2018-09-18T14:03:05.648Z,21.06
2018-09-18T14:05:35.416Z,21.09
2018-09-18T14:08:05.518Z,21.06
2018-09-18T14:10:35.374Z,20.94
2018-09-18T14:13:05.337Z,21.01
2018-09-18T14:15:35.790Z,20.88
2018-09-18T14:18:06.746Z,21.02
2018-09-18T14:20:37.521Z,20.98
2018-09-18T14:23:08.412Z,20.89
2018-09-18T14:25:39.957Z,20.90
2018-09-18T14:28:11.132Z,20.85
2018-09-18T14:30:42.456Z,20.88
2018-09-18T14:33:13.637Z,20.83
2018-09-18T14:35:44.372Z,20.83
2018-09-18T14:38:15.497Z,20.85
2018-09-18T14:40:45.877Z,20.93
2018-09-18T14:43:16.231Z,20.86
2018-09-18T14:45:46.546Z,20.79
2018-09-18T14:48:17.440Z,20.70
2018-09-18T14:50:48.932Z,20.73
2018-09-18T14:53:19.160Z,20.68
2018-09-18T14:55:49.256Z,20.67
2018-09-18T14:58:19.422Z,20.70
2018-09-18T15:00:50.539Z,20.58
2018-09-18T15:03:20.645Z,20.57
2018-09-18T15:05:51.437Z,20.54
2018-09-18T15:08:21.542Z,20.64
2018-09-18T15:10:52.413Z,20.53
2018-09-18T15:13:22.675Z,20.49
2018-09-18T15:15:53.076Z,20.43
2018-09-18T15:18:24.865Z,20.45
2018-09-18T15:20:55.015Z,20.30
2018-09-18T15:23:25.326Z,20.25
2018-09-18T15:25:55.775Z,20.20
2018-09-18T15:28:26.020Z,20.13
2018-09-18T15:30:57.206Z,20.17
2018-09-18T15:33:27.394Z,20.18
2018-09-18T15:35:57.386Z,20.14
2018-09-18T15:38:27.692Z,20.05
2018-09-18T15:40:59.233Z,19.92
2018-09-18T15:43:31.169Z,19.85
2018-09-18T15:46:01.307Z,19.82
2018-09-18T15:48:33.834Z,19.86
2018-09-18T15:51:04.102Z,19.74
2018-09-18T15:53:34.209Z,19.76
2018-09-18T15:56:04.357Z,19.72
2018-09-18T15:58:35.602Z,19.65
2018-09-18T16:01:06.935Z,19.69
2018-09-18T16:03:37.184Z,19.56
2018-09-18T16:06:08.986Z,19.58
2018-09-18T16:08:40.085Z,19.48
2018-09-18T16:11:11.996Z,19.44
2018-09-18T16:13:44.018Z,19.49
2018-09-18T16:16:15.541Z,19.47
2018-09-18T16:18:45.938Z,19.39
2018-09-18T16:21:16.343Z,19.30
2018-09-18T16:23:46.409Z,19.27
2018-09-18T16:26:16.641Z,19.14
2018-09-18T16:28:46.872Z,19.21
2018-09-18T16:31:17.147Z,19.20
2018-09-18T16:33:48.570Z,19.26
2018-09-18T16:36:18.964Z,19.13
2018-09-18T16:38:49.652Z,19.12
2018-09-18T16:41:20.123Z,19.16
2018-09-18T16:43:52.184Z,19.11
2018-09-18T16:46:22.441Z,19.10
2018-09-18T16:48:53.668Z,19.01
2018-09-18T16:51:26.431Z,19.00
2018-09-18T16:53:57.076Z,19.02
2018-09-18T16:56:28.227Z,19.02
2018-09-18T16:58:59.350Z,19.01
2018-09-18T17:02:58.905Z,18.96
2018-09-18T17:05:29.043Z,18.89
2018-09-18T17:07:59.358Z,18.85
2018-09-18T17:10:29.751Z,18.79
2018-09-18T17:13:01.726Z,18.80
2018-09-18T17:18:17.389Z,18.84
2018-09-18T17:20:48.364Z,18.84
2018-09-18T17:23:18.412Z,18.64
2018-09-18T17:25:49.104Z,18.78
2018-09-18T17:28:20.255Z,18.78
2018-09-18T17:30:50.780Z,18.78
2018-09-18T17:33:21.201Z,18.73
2018-09-18T17:35:51.929Z,18.69
2018-09-18T17:38:23.143Z,18.62
2018-09-18T17:40:53.204Z,18.64
2018-09-18T17:43:23.803Z,18.63
2018-09-18T17:45:54.021Z,18.60
2018-09-18T17:48:24.798Z,18.59
2018-09-18T17:50:54.777Z,18.50
2018-09-18T17:53:25.008Z,18.50
2018-09-18T17:55:55.151Z,18.51
2018-09-18T17:58:26.875Z,18.54
2018-09-18T18:00:58.238Z,18.53
2018-09-18T18:03:28.438Z,18.51
2018-09-18T18:05:58.569Z,18.40
2018-09-18T18:08:28.667Z,18.32
2018-09-18T18:10:58.799Z,18.20
2018-09-18T18:13:28.986Z,18.02
2018-09-18T18:16:01.231Z,17.88
2018-09-18T18:18:32.100Z,17.90
2018-09-18T18:21:02.251Z,17.71
2018-09-18T18:23:32.400Z,17.76
2018-09-18T18:26:03.730Z,17.66
2018-09-18T18:28:34.490Z,17.68
2018-09-18T18:31:04.612Z,17.57
2018-09-18T18:33:34.768Z,17.58
2018-09-18T18:36:06.977Z,17.54
2018-09-18T18:38:38.405Z,17.46
2018-09-18T18:41:10.535Z,17.48
2018-09-18T18:43:41.377Z,17.49
2018-09-18T18:46:13.508Z,17.49
2018-09-18T18:48:44.864Z,17.47
2018-09-18T18:51:14.931Z,17.51
2018-09-18T18:53:46.021Z,17.44
2018-09-18T18:56:16.233Z,17.46
2018-09-18T18:58:46.487Z,17.34
2018-09-18T19:01:17.528Z,17.40
2018-09-18T19:03:47.883Z,17.36
2018-09-18T19:06:18.374Z,17.40
2018-09-18T19:08:50.655Z,17.40
2018-09-18T19:11:21.275Z,17.39
2018-09-18T19:13:51.565Z,17.42
2018-09-18T19:16:23.504Z,17.36
2018-09-18T19:18:53.785Z,17.39
2018-09-18T19:21:23.967Z,17.32
2018-09-18T19:23:55.858Z,17.32
2018-09-18T19:26:26.045Z,17.32
2018-09-18T19:28:57.326Z,17.33
2018-09-18T19:31:28.335Z,17.34
2018-09-18T19:33:58.725Z,17.27
2018-09-18T19:36:28.974Z,17.25
2018-09-18T19:38:59.556Z,17.26
2018-09-18T19:41:30.220Z,17.20
2018-09-18T19:44:01.029Z,17.22
2018-09-18T19:46:31.330Z,17.29
2018-09-18T19:49:01.632Z,17.22
2018-09-18T19:51:31.791Z,17.29
2018-09-18T19:54:01.980Z,17.32
2018-09-18T19:56:32.156Z,17.28
2018-09-18T19:59:02.565Z,17.32
2018-09-18T20:01:32.832Z,17.22
2018-09-18T20:04:02.995Z,17.16
2018-09-18T20:06:33.156Z,17.05
2018-09-18T20:09:05.404Z,17.22
2018-09-18T20:11:35.989Z,17.24
2018-09-18T20:14:06.396Z,17.23
2018-09-18T20:16:36.786Z,17.22
2018-09-18T20:19:06.928Z,17.26
2018-09-18T20:21:37.152Z,17.25
2018-09-18T20:24:07.216Z,17.20
2018-09-18T20:26:37.265Z,17.21
2018-09-18T20:29:08.218Z,17.28
2018-09-18T20:31:39.701Z,17.23
2018-09-18T20:34:10.075Z,17.21
2018-09-18T20:36:40.051Z,17.14
2018-09-18T20:39:11.765Z,17.15
2018-09-18T20:41:41.687Z,17.17
2018-09-18T20:44:13.103Z,17.11
2018-09-18T20:46:43.166Z,17.10
2018-09-18T20:49:14.509Z,17.11
2018-09-18T20:51:44.633Z,17.21
2018-09-18T20:54:14.759Z,17.27
2018-09-18T20:56:45.077Z,17.23
2018-09-18T20:59:15.622Z,17.27
2018-09-18T21:01:45.822Z,17.34
2018-09-18T21:04:16.482Z,17.32
2018-09-18T21:06:46.468Z,17.32
2018-09-18T21:09:16.620Z,17.32
2018-09-18T21:11:46.890Z,17.30
2018-09-18T21:14:17.426Z,17.27
2018-09-18T21:16:47.860Z,17.26
2018-09-18T21:19:19.253Z,17.35
2018-09-18T21:21:49.922Z,17.34
2018-09-18T21:24:21.007Z,17.28
2018-09-18T21:26:51.420Z,17.29
2018-09-18T21:29:21.569Z,17.33
2018-09-18T21:31:53.170Z,17.36
2018-09-18T21:34:25.478Z,17.30
2018-09-18T21:36:55.942Z,17.34
2018-09-18T21:39:27.086Z,17.31
2018-09-18T21:41:57.493Z,17.34
2018-09-18T21:44:29.585Z,17.34
2018-09-18T21:46:59.763Z,17.33
2018-09-18T21:49:30.046Z,17.38
2018-09-18T21:52:00.207Z,17.42
2018-09-18T21:54:32.026Z,17.37
2018-09-18T21:57:02.791Z,17.35
2018-09-18T21:59:36.936Z,17.38
2018-09-18T22:02:07.432Z,17.38
2018-09-18T22:04:41.078Z,17.32
2018-09-18T22:07:11.347Z,17.28
2018-09-18T22:09:41.540Z,17.30
2018-09-18T22:12:13.062Z,17.25
2018-09-18T22:14:43.297Z,17.16
2018-09-18T22:17:13.401Z,17.17
2018-09-18T22:19:46.422Z,17.29
2018-09-18T22:22:16.613Z,17.26
2018-09-18T22:24:46.533Z,17.27
2018-09-18T22:27:16.809Z,17.27
2018-09-18T22:29:47.256Z,17.26
2018-09-18T22:32:17.217Z,17.28
2018-09-18T22:34:47.326Z,17.24
2018-09-18T22:37:17.495Z,17.17
2018-09-18T22:39:47.473Z,17.23
2018-09-18T22:42:18.504Z,17.27
2018-09-18T22:44:48.771Z,17.24
2018-09-18T22:47:18.967Z,17.30
2018-09-18T22:49:50.231Z,17.35
2018-09-18T22:52:21.445Z,17.32
2018-09-18T22:54:51.681Z,17.32
2018-09-18T22:57:22.151Z,17.31
2018-09-18T22:59:52.426Z,17.28
2018-09-18T23:02:22.441Z,17.30
2018-09-18T23:04:53.468Z,17.28
2018-09-18T23:07:24.290Z,17.23
2018-09-18T23:09:55.180Z,17.27
2018-09-18T23:12:25.492Z,17.15
2018-09-18T23:14:55.733Z,17.20
2018-09-18T23:17:26.085Z,17.18
2018-09-18T23:19:56.340Z,17.09
2018-09-18T23:22:26.659Z,17.16
2018-09-18T23:24:57.983Z,17.12
2018-09-18T23:27:28.057Z,17.09
2018-09-18T23:29:58.272Z,17.08
2018-09-18T23:32:28.406Z,17.10
2018-09-18T23:34:58.703Z,17.09
2018-09-18T23:37:29.071Z,17.07
2018-09-18T23:40:00.088Z,17.06
2018-09-18T23:42:30.087Z,17.08
2018-09-18T23:45:00.023Z,17.05
2018-09-18T23:47:30.210Z,17.08
2018-09-18T23:50:00.409Z,16.96
2018-09-18T23:52:30.593Z,16.98
2018-09-18T23:55:00.803Z,16.98
2018-09-18T23:57:31.660Z,16.88
